Time;durP1;ratioP1;P1;durP2;ratioP2;P2;SDS_P1;SDS_P2;PMS_P1;PMS_P2;Temp;Humidity;BMP_temperature;BMP_pressure;BME280_temperature;BME280_humidity;BME280_pressure;Samples;Min_cycle;Max_cycle;Signal;HPM_P1;HPM_P2
2021/10/01 06:13:23;;;;;;;4.65;2.20;;;13.10;99.90;;;;;;6087877;23;20297;-82
2021/10/01 06:16:23;;;;;;;3.15;1.67;;;13.20;99.90;;;;;;6087833;23;20193;-83
2021/10/01 06:39:01;;;;;;;6.97;1.35;;;13.70;99.90;;;;;;6172630;23;20222;-69
2021/10/01 06:41:28;;;;;;;3.38;1.67;;;13.70;99.90;;;;;;6185214;23;20335;-69
2021/10/01 06:43:59;;;;;;;3.38;1.40;;;13.70;99.90;;;;;;6184740;23;20203;-69
2021/10/01 06:46:33;;;;;;;1.63;1.00;;;13.80;99.90;;;;;;6184195;23;20165;-69
2021/10/01 06:49:14;;;;;;;3.30;1.45;;;13.90;99.90;;;;;;6183418;23;20251;-69
2021/10/01 06:51:54;;;;;;;5.25;1.55;;;13.90;99.90;;;;;;6183097;23;20234;-69
2021/10/01 08:20:15;;;;;;;5.23;1.83;;;22.30;80.40;;;;;;6184423;23;20388;-70
2021/10/01 08:22:42;;;;;;;5.33;1.50;;;22.20;78.70;;;;;;6184315;23;20435;-70
2021/10/01 08:25:10;;;;;;;4.80;1.30;;;21.10;81.20;;;;;;6183891;23;20403;-69
2021/10/01 08:27:38;;;;;;;2.73;1.30;;;20.90;82.70;;;;;;6184266;23;20396;-69
2021/10/01 08:30:09;;;;;;;5.70;1.40;;;20.80;83.00;;;;;;6183985;23;20430;-71
2021/10/01 08:32:38;;;;;;;3.77;1.57;;;20.90;84.00;;;;;;6184367;23;20511;-70
2021/10/01 08:35:07;;;;;;;2.53;1.80;;;21.20;83.70;;;;;;6183979;23;20483;-71
2021/10/01 08:37:40;;;;;;;3.53;1.20;;;21.70;82.00;;;;;;6184125;23;20427;-70
2021/10/01 08:40:08;;;;;;;3.30;1.00;;;22.40;81.00;;;;;;6184251;23;20398;-76
2021/10/01 08:42:38;;;;;;;4.90;1.23;;;23.40;78.10;;;;;;6184689;23;20442;-73
2021/10/01 08:45:07;;;;;;;3.07;1.07;;;23.40;76.50;;;;;;6183627;23;20391;-72
2021/10/01 08:47:37;;;;;;;3.33;1.30;;;22.00;78.60;;;;;;6182434;23;20428;-74
2021/10/01 08:50:06;;;;;;;2.47;1.53;;;21.70;81.10;;;;;;6184312;23;20514;-72
2021/10/01 08:52:34;;;;;;;2.63;1.27;;;22.50;80.60;;;;;;6184091;23;20432;-71
2021/10/01 08:55:07;;;;;;;3.10;1.10;;;22.60;78.70;;;;;;6183612;23;20534;-71
2021/10/01 08:57:34;;;;;;;5.20;1.50;;;23.40;78.20;;;;;;6184523;23;20424;-72
2021/10/01 09:00:03;;;;;;;2.37;1.30;;;24.00;76.30;;;;;;6184558;23;20400;-72
2021/10/01 09:02:31;;;;;;;7.20;2.03;;;23.40;76.30;;;;;;6183903;23;20436;-71
2021/10/01 09:05:01;;;;;;;9.10;1.80;;;23.30;76.80;;;;;;6184333;23;20490;-71
2021/10/01 09:07:28;;;;;;;4.80;1.03;;;23.90;76.00;;;;;;6183203;23;20419;-71
2021/10/01 09:09:56;;;;;;;5.30;1.43;;;24.20;75.00;;;;;;6184733;23;20850;-71
2021/10/01 09:12:24;;;;;;;5.20;1.50;;;24.70;75.30;;;;;;6183569;23;20415;-72
2021/10/01 09:14:56;;;;;;;5.00;1.63;;;25.30;73.30;;;;;;6183962;23;20395;-71
2021/10/01 09:17:26;;;;;;;6.27;1.87;;;25.60;72.30;;;;;;6183814;23;20403;-71
2021/10/01 09:19:54;;;;;;;7.30;2.07;;;25.40;70.90;;;;;;6184229;23;20407;-71
2021/10/01 09:22:28;;;;;;;3.13;1.40;;;25.10;71.70;;;;;;6183747;23;20431;-71
2021/10/01 09:25:10;;;;;;;2.83;1.40;;;25.00;72.10;;;;;;6183886;23;20429;-71
2021/10/01 09:27:38;;;;;;;8.37;1.60;;;25.20;71.10;;;;;;6184063;23;20705;-70
2021/10/01 09:30:07;;;;;;;3.90;1.53;;;24.20;72.40;;;;;;6184475;23;20435;-71
2021/10/01 09:32:35;;;;;;;2.70;1.53;;;23.60;74.80;;;;;;6184039;23;20438;-70
2021/10/01 09:35:12;;;;;;;6.13;1.60;;;23.20;75.30;;;;;;6184399;23;20388;-71
2021/10/01 09:37:41;;;;;;;4.30;1.20;;;24.20;74.90;;;;;;6187818;23;20446;-71
2021/10/01 09:40:10;;;;;;;3.30;1.87;;;24.00;74.70;;;;;;6186021;23;20733;-71
2021/10/01 09:42:44;;;;;;;4.13;1.97;;;22.80;74.60;;;;;;6184008;23;20435;-70
2021/10/01 09:45:12;;;;;;;2.70;0.87;;;21.70;78.20;;;;;;6183385;23;20399;-70
2021/10/01 09:47:43;;;;;;;5.60;1.63;;;21.20;79.30;;;;;;6184374;23;20429;-70
2021/10/01 09:50:14;;;;;;;3.57;1.77;;;20.70;81.80;;;;;;6183587;23;20492;-71
2021/10/01 09:52:45;;;;;;;3.53;1.03;;;21.40;82.10;;;;;;6183734;23;21040;-71
2021/10/01 09:55:13;;;;;;;9.67;2.13;;;22.20;79.60;;;;;;6183144;23;20396;-71
2021/10/01 09:58:00;;;;;;;3.60;1.33;;;22.40;78.40;;;;;;6184456;23;20389;-71
2021/10/01 10:00:37;;;;;;;4.93;1.47;;;22.50;78.90;;;;;;6183867;23;20388;-71
2021/10/01 10:03:05;;;;;;;4.30;1.67;;;22.10;78.40;;;;;;6182573;23;20431;-71
2021/10/01 10:05:56;;;;;;;2.70;1.40;;;22.80;78.80;;;;;;6184925;23;20714;-71
2021/10/01 10:08:28;;;;;;;3.20;1.73;;;23.40;77.30;;;;;;6186542;23;20731;-71
2021/10/01 10:10:56;;;;;;;9.87;1.93;;;22.80;77.80;;;;;;6185610;23;20428;-71
2021/10/01 10:13:43;;;;;;;6.60;1.77;;;22.60;78.20;;;;;;6185745;23;20435;-71
2021/10/01 10:16:12;;;;;;;3.50;1.40;;;21.80;80.10;;;;;;6184389;23;20402;-71
2021/10/01 10:18:40;;;;;;;3.97;1.10;;;21.60;81.00;;;;;;6185537;23;20392;-73
2021/10/01 10:21:07;;;;;;;5.63;1.00;;;21.80;80.80;;;;;;6185361;23;20416;-72
2021/10/01 10:23:36;;;;;;;5.33;2.17;;;22.40;80.80;;;;;;6185717;23;20427;-72
2021/10/01 10:26:04;;;;;;;3.13;1.30;;;22.60;80.40;;;;;;6185264;23;20426;-72
2021/10/01 10:28:33;;;;;;;2.03;1.07;;;22.70;79.80;;;;;;6185351;23;21158;-70
2021/10/01 10:31:00;;;;;;;5.50;2.10;;;22.40;80.50;;;;;;6185707;23;20423;-70
2021/10/01 10:33:42;;;;;;;3.50;1.57;;;22.10;80.50;;;;;;6185592;23;20755;-71
2021/10/01 10:36:32;;;;;;;2.93;1.17;;;21.70;82.10;;;;;;6184975;23;20441;-71
2021/10/01 10:39:49;;;;;;;3.07;1.87;;;21.50;82.00;;;;;;6185419;23;20446;-70
2021/10/01 10:42:22;;;;;;;5.73;2.43;;;20.60;83.20;;;;;;6185638;23;20438;-70
2021/10/01 10:44:55;;;;;;;5.17;2.23;;;20.60;85.30;;;;;;6185885;23;20697;-71
2021/10/01 10:47:43;;;;;;;11.80;2.13;;;20.40;85.90;;;;;;6184781;23;20396;-71
2021/10/01 10:50:47;;;;;;;7.33;1.50;;;20.60;85.40;;;;;;6186009;23;20459;-70
2021/10/01 10:53:20;;;;;;;4.77;1.97;;;20.40;86.30;;;;;;6185403;23;20487;-71
2021/10/01 10:56:10;;;;;;;5.73;1.53;;;20.40;86.50;;;;;;6182544;23;20414;-70
2021/10/01 10:58:46;;;;;;;5.30;1.63;;;20.10;86.70;;;;;;6185411;23;20725;-71
2021/10/01 11:01:43;;;;;;;4.47;1.30;;;20.00;87.70;;;;;;6185037;23;20926;-72
2021/10/01 11:04:40;;;;;;;2.60;1.33;;;19.90;88.40;;;;;;6186188;23;20435;-71
2021/10/01 11:07:09;;;;;;;5.87;1.60;;;20.00;88.00;;;;;;6184644;23;20411;-72
2021/10/01 11:09:47;;;;;;;2.90;1.40;;;20.20;87.60;;;;;;6186246;23;20910;-71
2021/10/01 11:12:26;;;;;;;3.30;1.67;;;20.40;86.60;;;;;;6185728;23;20396;-71
2021/10/01 11:15:14;;;;;;;5.77;1.83;;;20.50;86.70;;;;;;6183869;23;20879;-71
2021/10/01 11:17:44;;;;;;;3.17;1.13;;;20.60;85.70;;;;;;6186196;23;20393;-72
2021/10/01 11:20:35;;;;;;;5.93;2.97;;;20.60;86.50;;;;;;6185290;23;20852;-72
2021/10/01 11:23:17;;;;;;;4.17;1.70;;;21.00;86.30;;;;;;6185128;23;20429;-72
2021/10/01 11:25:44;;;;;;;6.20;2.63;;;21.00;83.80;;;;;;6185240;23;20716;-72
2021/10/01 11:28:14;;;;;;;7.27;1.47;;;20.90;85.20;;;;;;6185644;23;20397;-70
2021/10/01 11:30:47;;;;;;;8.40;1.20;;;20.70;85.40;;;;;;6185406;23;20435;-71
2021/10/01 11:33:15;;;;;;;2.27;1.30;;;20.90;85.90;;;;;;6183585;23;20495;-70
2021/10/01 11:35:54;;;;;;;4.40;1.50;;;20.80;85.70;;;;;;6185275;23;20397;-71
2021/10/01 11:38:29;;;;;;;3.20;1.20;;;20.40;86.20;;;;;;6184862;23;20435;-71
2021/10/01 11:41:14;;;;;;;4.10;1.57;;;20.40;87.30;;;;;;6185524;23;20414;-70
2021/10/01 11:43:52;;;;;;;5.53;1.30;;;20.40;85.90;;;;;;6185398;23;20439;-70
2021/10/01 11:46:27;;;;;;;4.83;1.30;;;20.60;85.60;;;;;;6188869;23;20448;-70
2021/10/01 11:48:54;;;;;;;5.73;1.73;;;20.40;85.50;;;;;;6189964;23;20392;-71
2021/10/01 11:51:23;;;;;;;5.03;1.77;;;20.40;86.60;;;;;;6186073;23;20431;-71
2021/10/01 11:54:07;;;;;;;3.77;1.83;;;20.40;87.30;;;;;;6185296;23;20911;-71
2021/10/01 11:56:34;;;;;;;3.87;1.27;;;20.50;87.50;;;;;;6184890;23;20392;-71
2021/10/01 11:59:09;;;;;;;2.53;1.40;;;20.60;86.30;;;;;;6185419;23;20396;-72
2021/10/01 12:01:36;;;;;;;2.77;1.20;;;21.00;86.70;;;;;;6185079;23;20389;-71
2021/10/01 12:04:05;;;;;;;5.10;1.17;;;20.80;85.60;;;;;;6185351;23;20925;-72
2021/10/01 12:06:36;;;;;;;2.10;1.10;;;20.80;85.80;;;;;;6185041;23;20860;-72
2021/10/01 12:09:09;;;;;;;3.90;1.97;;;20.80;86.40;;;;;;6185255;23;20458;-71
2021/10/01 12:11:43;;;;;;;4.60;1.50;;;20.40;86.80;;;;;;6184422;23;20423;-71
2021/10/01 12:14:14;;;;;;;5.63;2.37;;;20.30;88.60;;;;;;6185122;23;20462;-71
2021/10/01 12:16:54;;;;;;;5.93;1.70;;;20.10;88.50;;;;;;6184164;23;20392;-70
2021/10/01 12:19:23;;;;;;;2.40;1.53;;;19.80;89.00;;;;;;6184309;23;20396;-69
2021/10/01 12:22:02;;;;;;;2.70;1.33;;;19.60;90.00;;;;;;6184559;23;20396;-73
2021/10/01 12:24:29;;;;;;;5.33;1.57;;;19.60;90.10;;;;;;6183965;23;20411;-70
2021/10/01 12:26:57;;;;;;;5.80;1.80;;;19.60;90.40;;;;;;6183630;23;20400;-70
2021/10/01 12:29:27;;;;;;;4.60;1.50;;;19.70;90.40;;;;;;6183614;23;20984;-71
2021/10/01 12:31:58;;;;;;;6.60;1.40;;;19.80;90.60;;;;;;6185493;23;20423;-72
2021/10/01 12:34:26;;;;;;;4.67;1.43;;;19.90;90.50;;;;;;6185333;23;20400;-70
2021/10/01 12:36:58;;;;;;;8.07;1.67;;;20.20;90.10;;;;;;6183497;23;20398;-71
2021/10/01 12:39:26;;;;;;;5.53;1.30;;;20.30;90.10;;;;;;6184638;23;20931;-71
2021/10/01 12:41:58;;;;;;;5.80;1.87;;;20.20;89.30;;;;;;6184227;23;20430;-71
2021/10/01 12:44:32;;;;;;;5.73;1.60;;;20.10;90.30;;;;;;6185118;23;20469;-71
2021/10/01 12:47:12;;;;;;;2.10;1.50;;;20.20;90.30;;;;;;6184128;23;20395;-71
2021/10/01 12:49:39;;;;;;;4.50;1.37;;;20.10;90.20;;;;;;6184734;23;20387;-71
2021/10/01 12:52:13;;;;;;;2.27;1.30;;;19.80;90.40;;;;;;6184118;23;20515;-71
2021/10/01 12:54:49;;;;;;;3.93;1.43;;;19.70;90.80;;;;;;6185698;23;20521;-71
2021/10/01 12:57:33;;;;;;;6.47;3.10;;;19.70;90.70;;;;;;6185244;23;20396;-70
2021/10/01 13:00:11;;;;;;;4.30;1.43;;;19.60;90.30;;;;;;6184838;23;20399;-72
2021/10/01 13:02:41;;;;;;;7.73;1.90;;;19.50;91.10;;;;;;6184091;23;20432;-70
2021/10/01 13:05:10;;;;;;;7.70;1.80;;;19.70;91.00;;;;;;6184407;23;20396;-72
2021/10/01 13:07:40;;;;;;;9.90;1.70;;;19.80;90.70;;;;;;6183807;23;20395;-71
2021/10/01 13:10:21;;;;;;;2.93;1.20;;;19.80;90.60;;;;;;6184307;23;20859;-71
2021/10/01 13:12:51;;;;;;;4.43;1.50;;;19.70;90.80;;;;;;6184207;23;20428;-71
2021/10/01 13:15:26;;;;;;;4.20;1.07;;;19.70;90.50;;;;;;6183417;23;20503;-71
2021/10/01 13:18:24;;;;;;;4.77;1.03;;;19.70;90.50;;;;;;6184655;23;20403;-71
2021/10/01 13:20:55;;;;;;;2.00;1.27;;;19.50;90.80;;;;;;6184143;23;20396;-70
2021/10/01 13:23:31;;;;;;;2.60;1.53;;;19.50;90.70;;;;;;6183751;23;20703;-70
2021/10/01 13:26:00;;;;;;;8.17;1.63;;;19.50;90.70;;;;;;6183832;23;20475;-71
2021/10/01 13:28:31;;;;;;;5.40;1.73;;;19.50;90.80;;;;;;6184110;23;20392;-70
2021/10/01 13:31:00;;;;;;;2.97;1.80;;;19.60;90.70;;;;;;6183534;23;20439;-71
2021/10/01 13:33:30;;;;;;;5.03;2.60;;;19.30;90.50;;;;;;6183315;23;20526;-71
2021/10/01 13:35:58;;;;;;;4.93;1.83;;;19.30;90.80;;;;;;6182530;23;20455;-72
2021/10/01 13:38:31;;;;;;;5.17;1.70;;;19.30;90.90;;;;;;6182582;23;20427;-71
2021/10/01 13:40:59;;;;;;;2.30;1.20;;;19.40;90.80;;;;;;6182932;23;20423;-72
2021/10/01 13:43:27;;;;;;;4.73;1.30;;;19.50;90.70;;;;;;6183778;23;20756;-74
2021/10/01 13:45:55;;;;;;;6.10;2.30;;;19.40;91.00;;;;;;6182367;23;20881;-72
2021/10/01 13:48:24;;;;;;;6.50;2.10;;;19.50;91.00;;;;;;6182561;23;20399;-73
2021/10/01 13:50:52;;;;;;;3.33;1.27;;;19.60;91.10;;;;;;6183234;23;20439;-72
2021/10/01 13:53:19;;;;;;;6.83;1.30;;;19.70;90.90;;;;;;6183798;23;20472;-73
2021/10/01 13:55:47;;;;;;;1.40;1.10;;;19.70;90.90;;;;;;6183319;23;20458;-73
2021/10/01 13:58:15;;;;;;;3.33;1.40;;;19.90;90.70;;;;;;6184000;23;20486;-73
2021/10/01 14:00:42;;;;;;;4.23;1.40;;;19.80;91.00;;;;;;6188753;23;20396;-72
2021/10/01 14:03:10;;;;;;;3.47;1.20;;;19.90;90.60;;;;;;6192085;23;20733;-71
2021/10/01 14:05:39;;;;;;;2.40;1.23;;;20.00;90.60;;;;;;6182961;23;20935;-72
2021/10/01 14:08:06;;;;;;;3.53;1.63;;;19.90;90.70;;;;;;6183513;23;20406;-71
2021/10/01 14:10:36;;;;;;;3.80;1.33;;;19.90;90.50;;;;;;6183426;23;20436;-72
2021/10/01 14:13:06;;;;;;;11.87;2.00;;;19.90;90.20;;;;;;6182924;23;20547;-72
2021/10/01 14:15:34;;;;;;;2.90;1.50;;;19.90;90.20;;;;;;6181501;23;20483;-71
2021/10/01 14:18:01;;;;;;;4.43;3.00;;;20.10;89.60;;;;;;6183342;23;20402;-72
2021/10/01 14:20:31;;;;;;;4.13;1.80;;;20.00;88.70;;;;;;6182850;23;20399;-72
2021/10/01 14:23:01;;;;;;;4.97;1.60;;;20.00;89.10;;;;;;6183491;23;20754;-71
2021/10/01 14:25:29;;;;;;;5.03;1.47;;;20.00;89.80;;;;;;6182663;23;20750;-72
2021/10/01 14:27:57;;;;;;;2.80;1.30;;;19.90;87.30;;;;;;6183759;23;20391;-71
2021/10/01 14:30:31;;;;;;;2.03;1.13;;;19.90;86.50;;;;;;6183542;23;20392;-71
2021/10/01 14:33:00;;;;;;;3.03;1.70;;;20.00;87.20;;;;;;6183270;23;20602;-71
2021/10/01 14:35:28;;;;;;;3.90;3.50;;;20.10;86.60;;;;;;6182701;23;20420;-72
2021/10/01 14:37:58;;;;;;;2.30;1.27;;;20.20;86.80;;;;;;6182819;23;20431;-71
2021/10/01 14:40:27;;;;;;;4.00;1.70;;;20.10;86.40;;;;;;6183193;23;20407;-72
2021/10/01 14:42:54;;;;;;;4.70;1.53;;;20.10;86.00;;;;;;6182867;23;20431;-72
2021/10/01 14:45:22;;;;;;;6.40;2.23;;;20.00;86.00;;;;;;6182723;23;20871;-72
2021/10/01 14:47:49;;;;;;;3.90;1.93;;;20.00;86.00;;;;;;6183674;23;20483;-71
2021/10/01 14:50:16;;;;;;;3.10;1.33;;;20.00;85.90;;;;;;6184155;23;20693;-71
2021/10/01 14:52:43;;;;;;;2.50;1.37;;;19.90;85.30;;;;;;6184866;23;20447;-71
2021/10/01 14:55:11;;;;;;;5.60;1.60;;;19.80;85.80;;;;;;6183391;23;20484;-70
2021/10/01 14:57:41;;;;;;;3.50;1.83;;;19.90;86.10;;;;;;6184188;23;20424;-71
2021/10/01 15:00:10;;;;;;;7.47;1.97;;;19.80;85.90;;;;;;6185212;23;20871;-71
2021/10/01 15:02:37;;;;;;;3.30;1.20;;;19.80;86.20;;;;;;6184857;23;20424;-71
2021/10/01 15:05:06;;;;;;;6.43;2.03;;;19.90;86.20;;;;;;6184179;23;20396;-71
2021/10/01 15:07:34;;;;;;;7.97;2.03;;;19.80;86.10;;;;;;6185216;23;20380;-72
2021/10/01 15:10:01;;;;;;;4.90;1.40;;;19.90;86.40;;;;;;6185348;23;20745;-71
2021/10/01 15:12:28;;;;;;;2.30;1.17;;;19.90;86.00;;;;;;6184676;23;20457;-70
2021/10/01 15:14:59;;;;;;;4.90;1.23;;;19.80;85.80;;;;;;6184949;23;20396;-71
2021/10/01 15:17:26;;;;;;;5.03;2.13;;;19.90;85.50;;;;;;6184299;23;20452;-70
2021/10/01 15:19:53;;;;;;;3.30;1.93;;;19.80;86.10;;;;;;6184322;23;20851;-70
2021/10/01 15:22:20;;;;;;;2.03;1.57;;;19.80;85.70;;;;;;6183664;23;20431;-68
2021/10/01 15:24:48;;;;;;;2.43;1.60;;;19.60;85.50;;;;;;6184507;23;20391;-68
2021/10/01 15:27:16;;;;;;;2.97;1.50;;;19.60;85.90;;;;;;6183620;23;20403;-71
2021/10/01 15:30:14;;;;;;;7.83;1.90;;;19.60;86.10;;;;;;6181177;23;20423;-70
2021/10/01 15:32:44;;;;;;;2.83;1.37;;;19.50;86.40;;;;;;6182310;23;20451;-68
2021/10/01 15:35:16;;;;;;;3.40;1.40;;;19.50;86.40;;;;;;6183401;23;20502;-70
2021/10/01 15:37:45;;;;;;;3.40;1.50;;;19.50;85.90;;;;;;6183751;23;20454;-69
2021/10/01 15:40:14;;;;;;;5.77;1.70;;;19.50;85.90;;;;;;6182920;23;20454;-70
2021/10/01 15:42:41;;;;;;;3.63;1.30;;;19.30;85.40;;;;;;6182732;23;20430;-69
2021/10/01 15:45:10;;;;;;;4.87;1.57;;;19.30;86.30;;;;;;6182358;23;20388;-70
2021/10/01 15:47:39;;;;;;;2.60;1.40;;;19.10;86.90;;;;;;6183933;23;20410;-70
2021/10/01 15:50:08;;;;;;;3.47;1.30;;;19.10;87.20;;;;;;6183883;23;20491;-71
2021/10/01 15:52:36;;;;;;;6.20;1.53;;;19.00;87.50;;;;;;6183150;23;20678;-69
2021/10/01 15:55:09;;;;;;;1.77;1.30;;;19.00;87.50;;;;;;6182367;23;20396;-70
2021/10/01 15:57:36;;;;;;;3.40;1.43;;;18.90;87.70;;;;;;6182995;23;20434;-70
2021/10/01 16:00:05;;;;;;;6.60;1.80;;;18.90;87.50;;;;;;6183344;23;20426;-70
2021/10/01 16:02:32;;;;;;;6.03;2.43;;;18.90;87.60;;;;;;6183280;23;20478;-69
2021/10/01 16:05:01;;;;;;;4.43;1.30;;;18.80;87.90;;;;;;6183759;23;20392;-70
2021/10/01 16:07:28;;;;;;;2.30;1.60;;;18.70;88.00;;;;;;6183429;23;20397;-71
2021/10/01 16:09:55;;;;;;;2.70;1.40;;;18.70;88.00;;;;;;6185151;23;20388;-71
2021/10/01 16:12:23;;;;;;;4.67;1.70;;;18.60;88.80;;;;;;6187695;23;20471;-71
2021/10/01 16:14:51;;;;;;;1.80;1.33;;;18.50;88.70;;;;;;6187776;23;20396;-70
2021/10/01 16:17:18;;;;;;;5.00;2.00;;;18.50;89.00;;;;;;6184446;23;20726;-70
2021/10/01 16:19:49;;;;;;;6.63;1.93;;;18.40;89.00;;;;;;6183921;23;20392;-70
2021/10/01 16:22:18;;;;;;;5.20;2.60;;;18.40;89.10;;;;;;6184314;23;20426;-70
2021/10/01 16:24:46;;;;;;;8.07;2.27;;;18.30;89.40;;;;;;6182684;23;20396;-71
2021/10/01 16:27:13;;;;;;;4.30;2.47;;;18.20;89.80;;;;;;6184199;23;20499;-70
2021/10/01 16:29:40;;;;;;;4.90;1.37;;;18.20;90.00;;;;;;6183553;23;20396;-72
2021/10/01 16:32:08;;;;;;;4.30;2.00;;;18.10;90.30;;;;;;6184337;23;20439;-71
2021/10/01 16:34:36;;;;;;;6.07;1.60;;;18.10;90.50;;;;;;6184570;23;20461;-70
2021/10/01 16:37:03;;;;;;;4.93;3.10;;;18.00;90.70;;;;;;6183612;23;20396;-72
2021/10/01 16:39:34;;;;;;;10.80;5.90;;;18.00;90.90;;;;;;6181053;23;20423;-71
2021/10/01 16:42:01;;;;;;;8.00;4.17;;;17.90;91.00;;;;;;6181263;23;20450;-72
2021/10/01 16:44:31;;;;;;;20.23;12.40;;;17.90;91.30;;;;;;6182502;23;20398;-72
2021/10/01 16:46:59;;;;;;;12.47;9.20;;;17.90;91.50;;;;;;6180978;23;20462;-72
2021/10/01 16:49:26;;;;;;;6.50;3.40;;;17.80;91.80;;;;;;6182802;23;20396;-72
2021/10/01 16:51:53;;;;;;;7.87;2.17;;;17.70;92.00;;;;;;6183262;23;20434;-70
2021/10/01 16:54:21;;;;;;;6.17;2.60;;;17.70;92.20;;;;;;6183792;23;20389;-71
2021/10/01 16:56:50;;;;;;;3.67;2.10;;;17.70;92.40;;;;;;6183424;23;20487;-70
2021/10/01 16:59:17;;;;;;;7.10;2.63;;;17.60;92.60;;;;;;6184414;23;20400;-71
2021/10/01 17:01:44;;;;;;;5.70;2.80;;;17.50;93.00;;;;;;6183482;23;20450;-72
2021/10/01 17:04:11;;;;;;;4.10;2.30;;;17.40;93.40;;;;;;6184353;23;20432;-70
2021/10/01 17:06:38;;;;;;;5.87;1.80;;;17.30;93.70;;;;;;6183231;23;20685;-70
2021/10/01 17:09:05;;;;;;;5.70;2.40;;;17.30;94.00;;;;;;6183620;23;20380;-71
2021/10/01 17:11:33;;;;;;;5.73;2.40;;;17.30;94.40;;;;;;6184016;23;20742;-72
2021/10/01 17:14:02;;;;;;;5.40;3.10;;;17.20;94.90;;;;;;6183391;23;20756;-71
2021/10/01 17:16:29;;;;;;;6.17;2.70;;;17.10;95.20;;;;;;6183383;23;20419;-71
2021/10/01 17:18:56;;;;;;;2.87;2.10;;;17.10;95.60;;;;;;6183881;23;20384;-72
2021/10/01 17:21:25;;;;;;;7.03;2.60;;;17.10;96.10;;;;;;6184278;23;20414;-72
2021/10/01 17:23:52;;;;;;;5.33;2.20;;;17.00;96.50;;;;;;6184725;23;20430;-71
2021/10/01 17:26:22;;;;;;;4.37;2.20;;;16.90;97.10;;;;;;6184118;23;20475;-70
2021/10/01 17:28:49;;;;;;;4.25;2.40;;;16.90;97.40;;;;;;6184370;23;20878;-71
2021/10/01 17:31:17;;;;;;;7.93;2.60;;;16.80;98.00;;;;;;6183479;23;20168;-71
2021/10/01 17:33:52;;;;;;;4.90;2.00;;;16.80;98.30;;;;;;6184019;23;20282;-70
2021/10/01 17:36:19;;;;;;;5.43;2.40;;;16.80;98.60;;;;;;6183757;23;20588;-71
2021/10/01 17:38:47;;;;;;;5.18;2.55;;;16.80;98.90;;;;;;6184423;23;20423;-71
2021/10/01 17:41:14;;;;;;;8.00;2.90;;;16.70;99.30;;;;;;6183994;23;20603;-71
2021/10/01 17:43:42;;;;;;;7.45;2.53;;;16.60;99.70;;;;;;6183709;23;20753;-71
2021/10/01 17:46:09;;;;;;;3.60;2.15;;;16.50;99.90;;;;;;6183483;23;20611;-72
2021/10/01 17:48:37;;;;;;;8.45;2.55;;;16.60;99.90;;;;;;6183946;23;20170;-71
2021/10/01 17:51:05;;;;;;;4.40;2.00;;;16.50;99.90;;;;;;6183365;23;20173;-70
2021/10/01 17:53:32;;;;;;;4.90;2.53;;;16.50;99.90;;;;;;6183586;23;20540;-70
2021/10/01 17:56:00;;;;;;;7.32;3.03;;;16.50;99.90;;;;;;6182164;23;20251;-69
2021/10/01 17:58:27;;;;;;;5.03;4.13;;;16.50;99.90;;;;;;6183411;23;20242;-71
2021/10/01 18:00:54;;;;;;;8.07;3.78;;;16.40;99.90;;;;;;6183646;23;20167;-70
2021/10/01 18:03:22;;;;;;;5.70;4.10;;;16.40;99.90;;;;;;6183123;23;20282;-70
2021/10/01 18:05:51;;;;;;;5.90;3.50;;;16.40;99.90;;;;;;6183131;23;20163;-70
2021/10/01 18:08:18;;;;;;;6.32;3.22;;;16.30;99.90;;;;;;6184163;23;20173;-71
2021/10/01 18:10:45;;;;;;;9.95;3.15;;;16.20;99.90;;;;;;6182982;23;20246;-69
2021/10/01 18:13:12;;;;;;;5.28;3.65;;;16.20;99.90;;;;;;6183760;23;20355;-71
2021/10/01 18:15:40;;;;;;;4.03;2.83;;;16.10;99.90;;;;;;6182956;23;20166;-72
2021/10/01 18:18:07;;;;;;;2.60;2.00;;;16.10;99.90;;;;;;6184853;23;20178;-71
2021/10/01 18:20:35;;;;;;;4.95;2.55;;;16.10;99.90;;;;;;6185921;23;20184;-69
2021/10/01 18:23:04;;;;;;;5.35;4.05;;;16.10;99.90;;;;;;6183650;23;20197;-69
2021/10/01 18:25:31;;;;;;;6.47;3.50;;;16.10;99.90;;;;;;6184528;23;20178;-69
2021/10/01 18:27:58;;;;;;;3.35;2.60;;;16.10;99.90;;;;;;6185507;23;20193;-71
2021/10/01 18:30:26;;;;;;;6.20;2.90;;;16.10;99.90;;;;;;6183508;23;20194;-69
2021/10/01 18:32:54;;;;;;;5.00;2.58;;;16.10;99.90;;;;;;6184614;23;20227;-70
2021/10/01 18:35:22;;;;;;;4.63;2.07;;;16.10;99.90;;;;;;6182369;23;20172;-70
2021/10/01 18:37:49;;;;;;;3.60;2.40;;;16.10;99.90;;;;;;6184923;23;20528;-71
2021/10/01 18:40:19;;;;;;;3.40;2.10;;;16.00;99.90;;;;;;6184772;23;20162;-70
2021/10/01 18:42:46;;;;;;;4.45;2.30;;;16.00;99.90;;;;;;6183522;23;20568;-72
2021/10/01 18:45:13;;;;;;;4.40;3.15;;;15.90;99.90;;;;;;6182804;23;20173;-73
2021/10/01 18:47:42;;;;;;;6.07;2.47;;;16.00;99.90;;;;;;6185598;23;20197;-69
2021/10/01 18:50:10;;;;;;;4.72;2.38;;;15.90;99.80;;;;;;6184484;23;20176;-71
2021/10/01 18:52:37;;;;;;;3.15;2.38;;;15.90;99.90;;;;;;6184473;23;20216;-73
2021/10/01 18:55:05;;;;;;;3.70;2.28;;;15.90;99.80;;;;;;6184164;23;20172;-74
2021/10/01 18:57:33;;;;;;;9.63;4.45;;;15.90;99.70;;;;;;6184391;23;20188;-71
2021/10/01 19:00:01;;;;;;;3.85;2.95;;;15.90;99.60;;;;;;6183583;23;20447;-71
2021/10/01 19:02:31;;;;;;;4.75;2.25;;;15.90;99.60;;;;;;6184624;23;20193;-70
2021/10/01 19:04:58;;;;;;;8.27;2.80;;;15.90;99.40;;;;;;6183966;23;20182;-70
2021/10/01 19:07:26;;;;;;;8.70;4.00;;;15.90;99.10;;;;;;6183257;23;20166;-70
2021/10/01 19:09:53;;;;;;;4.28;2.80;;;15.90;99.20;;;;;;6183214;23;20162;-69
2021/10/01 19:12:20;;;;;;;5.00;2.28;;;15.90;99.30;;;;;;6183685;23;20205;-66
2021/10/01 19:14:50;;;;;;;4.95;2.70;;;15.80;99.40;;;;;;6183719;23;20169;-68
2021/10/01 19:17:17;;;;;;;8.48;2.80;;;15.80;99.10;;;;;;6183146;23;20172;-68
2021/10/01 19:19:44;;;;;;;4.57;3.00;;;15.70;99.20;;;;;;6183906;23;20165;-66
2021/10/01 19:22:13;;;;;;;5.68;3.47;;;15.80;99.40;;;;;;6183279;23;20236;-66
2021/10/01 19:24:44;;;;;;;9.02;4.50;;;15.90;99.20;;;;;;6183676;23;20261;-69
2021/10/01 19:27:26;;;;;;;3.35;2.45;;;15.90;99.00;;;;;;6182469;23;20270;-68
2021/10/01 19:32:40;;;;;;;3.92;2.50;;;15.80;99.20;;;;;;6183389;23;20564;-68
2021/10/01 19:35:09;;;;;;;4.50;2.50;;;15.80;99.00;;;;;;6182483;23;20177;-69
2021/10/01 19:37:36;;;;;;;3.67;3.05;;;15.90;98.80;;;;;;6183247;23;20264;-69
2021/10/01 19:40:05;;;;;;;12.20;3.25;;;15.90;98.80;;;;;;6183663;23;20171;-67
2021/10/01 19:42:33;;;;;;;5.85;2.75;;;15.80;99.30;;;;;;6181833;23;20247;-69
2021/10/01 19:45:01;;;;;;;3.97;3.10;;;15.90;99.40;;;;;;6182535;23;20910;-72
2021/10/01 19:47:33;;;;;;;4.50;3.20;;;15.90;99.10;;;;;;6182446;23;20649;-71
2021/10/01 19:50:02;;;;;;;4.68;2.90;;;15.80;98.90;;;;;;6184024;23;20240;-69
2021/10/01 19:52:29;;;;;;;4.32;2.83;;;15.80;98.90;;;;;;6184005;23;20259;-71
2021/10/01 19:54:56;;;;;;;4.28;2.20;;;15.80;99.60;;;;;;6182711;23;20644;-74
2021/10/01 19:57:24;;;;;;;3.58;2.63;;;15.80;99.90;;;;;;6183178;23;20222;-74
2021/10/01 19:59:53;;;;;;;4.40;2.75;;;15.70;99.90;;;;;;6183637;23;20161;-72
2021/10/01 20:02:24;;;;;;;2.70;2.20;;;15.80;99.90;;;;;;6182491;23;20646;-74
2021/10/01 20:04:51;;;;;;;7.32;2.28;;;15.70;99.90;;;;;;6181635;23;20194;-72
2021/10/01 20:07:18;;;;;;;4.50;2.35;;;15.60;99.90;;;;;;6182938;23;20165;-73
2021/10/01 20:09:47;;;;;;;3.00;2.10;;;15.50;99.90;;;;;;6183448;23;20165;-72
2021/10/01 20:12:15;;;;;;;3.22;2.28;;;15.50;99.90;;;;;;6183523;23;20173;-71
2021/10/01 20:14:44;;;;;;;5.20;2.97;;;15.50;99.90;;;;;;6183376;23;20529;-71
2021/10/01 20:17:11;;;;;;;3.55;2.58;;;15.50;99.90;;;;;;6182750;23;20171;-70
2021/10/01 20:20:01;;;;;;;7.10;3.20;;;15.50;99.90;;;;;;6183515;23;20169;-73
2021/10/01 20:22:35;;;;;;;5.05;3.00;;;15.50;99.90;;;;;;6182789;23;20203;-72
2021/10/01 20:47:03;;;;;;;5.18;3.90;;;15.40;99.90;;;;;;6181744;23;20719;-70
2021/10/01 20:49:34;;;;;;;5.53;4.10;;;15.40;99.90;;;;;;6183438;23;20180;-71
2021/10/01 20:52:03;;;;;;;4.75;3.20;;;15.40;99.90;;;;;;6183161;23;20167;-73
2021/10/01 20:54:32;;;;;;;10.32;4.15;;;15.50;99.90;;;;;;6183714;23;20189;-70
2021/10/01 20:57:04;;;;;;;5.90;4.20;;;15.60;99.90;;;;;;6182098;23;20526;-70
2021/10/01 20:59:35;;;;;;;4.90;3.42;;;15.50;99.90;;;;;;6182938;23;20172;-71
2021/10/01 21:02:09;;;;;;;7.28;4.60;;;15.50;99.90;;;;;;6182941;23;20169;-71
2021/10/01 21:37:57;;;;;;;3.78;1.80;;;14.50;99.90;;;;;;6176354;23;20180;-71
2021/10/01 21:43:25;;;;;;;4.05;2.28;;;14.30;99.90;;;;;;6182875;23;20665;-69
2021/10/01 21:46:02;;;;;;;3.55;1.75;;;14.40;99.90;;;;;;6183079;23;20191;-70
2021/10/01 21:48:31;;;;;;;4.22;2.60;;;14.40;99.90;;;;;;6184091;23;20160;-70
2021/10/01 21:50:58;;;;;;;6.65;2.53;;;14.30;99.90;;;;;;6183101;23;20215;-71
2021/10/01 21:53:26;;;;;;;3.90;2.97;;;14.30;99.90;;;;;;6182651;23;20204;-71
2021/10/01 21:55:59;;;;;;;12.73;3.30;;;14.30;99.90;;;;;;6182079;23;20161;-71
2021/10/01 21:58:28;;;;;;;3.20;2.80;;;14.30;99.90;;;;;;6183937;23;20514;-70
2021/10/01 22:00:56;;;;;;;4.93;2.90;;;14.40;99.90;;;;;;6185023;23;20211;-68
2021/10/01 22:08:58;;;;;;;3.00;2.20;;;14.20;99.90;;;;;;6185199;23;20211;-70